Point Arena, CA

5:36 PM PST on December 25, 2014 (GMT -0800)
MAP POINT ARENA (P059) CA PSD | Change Station
CLOSE
Current Station
Personal Weather Station
Location: Point Arena, CA
Elevation: 68 ft
Nearby Weather Stations
Active Advisory: Frost Advisory

Elev 68 ft 38.93 °N, 123.73 °W | Updated 36 minutes ago

Clear
Clear
54 °F
Feels Like 54 °F
N
17
Wind Variable Wind from NNW
Gusts 0.0 mph

Today
High -- | Low -- °F
--% Chance of Precip.
Yesterday
High -- | Low -- °F
Precip. -- in
7:31 AM 4:58 PM
Waxing Crescent, 21% visible
Pressure 30.13 in
Visibility 10.0 miles
Clouds Clear
Dew Point 44 °F
Humidity 68%
Rainfall -999.00 in
Snow Depth Not available.
UV 0 out of 12
Pollen 1.50 out of 12
Air Quality Not available.
Flu Activity Not available.
METAR KUKI 260056Z AUTO 30005KT 10SM CLR 10/02 A3013 RMK AO2 SLP201 T01000022

More Conditions Fewer Conditions

Pressure 30.13 in
Visibility 10.0 miles
Clouds Clear
Dew Point 44 °F
Humidity 68%
Rainfall -999.00 in
Snow Depth Not available.
UV 0 out of 12
Pollen 1.50 out of 12
Air Quality Not available.
Flu Activity Not available.
METAR KUKI 260056Z AUTO 30005KT 10SM CLR 10/02 A3013 RMK AO2 SLP201 T01000022

More Conditions Fewer Conditions

10-Day Weather Forecast

Almanac

Astronomy

Dec. 25, 2014 Rise Set
Actual Time
Civil Twilight
Nautical Twilight
Astronomical Twilight
Moon
Length of Visible Light
Length of Day
Tomorrow will be .
, % of the Moon is Illuminated

Today's Extremes

State Highs State Lows

Community

WunderPhotos

Upload Photos

1,780,495 photos uploaded!

WunderBlogs® & News

Nearby

Air Quality

  Air Quality AQ Index Pollutant
Not available.

Snow Depth

Station Depth Elevation

Earthquake Activity

City Distance Mag. Time & Date
Minimum magnitude displayed is 2.5.

Coastal Water Temperatures

Place Temperature

Nearby Weather Stations